sensor_id;sensor_type;location;lat;lon;timestamp;P1;durP1;ratioP1;P2;durP2;ratioP2
60030;SDS011;45901;47.600;9.890;2024-02-23T00:01:46;0.20;;;0.07;;
60030;SDS011;45901;47.600;9.890;2024-02-23T00:04:14;0.40;;;0.20;;
60030;SDS011;45901;47.600;9.890;2024-02-23T00:06:41;1.03;;;0.27;;
60030;SDS011;45901;47.600;9.890;2024-02-23T00:09:08;0.63;;;0.30;;
60030;SDS011;45901;47.600;9.890;2024-02-23T00:11:35;2.37;;;0.30;;
60030;SDS011;45901;47.600;9.890;2024-02-23T00:14:06;0.10;;;0.10;;
60030;SDS011;45901;47.600;9.890;2024-02-23T00:16:36;0.10;;;0.10;;
60030;SDS011;45901;47.600;9.890;2024-02-23T00:19:07;0.00;;;0.00;;
60030;SDS011;45901;47.600;9.890;2024-02-23T00:21:35;0.00;;;0.00;;
60030;SDS011;45901;47.600;9.890;2024-02-23T00:24:02;0.00;;;0.00;;
60030;SDS011;45901;47.600;9.890;2024-02-23T00:26:30;0.20;;;0.10;;
60030;SDS011;45901;47.600;9.890;2024-02-23T00:28:57;0.00;;;0.00;;
60030;SDS011;45901;47.600;9.890;2024-02-23T00:31:24;0.00;;;0.00;;
60030;SDS011;45901;47.600;9.890;2024-02-23T00:33:51;0.10;;;0.10;;
60030;SDS011;45901;47.600;9.890;2024-02-23T00:36:19;0.20;;;0.00;;
60030;SDS011;45901;47.600;9.890;2024-02-23T00:38:46;0.20;;;0.00;;
60030;SDS011;45901;47.600;9.890;2024-02-23T00:41:13;0.10;;;0.10;;
60030;SDS011;45901;47.600;9.890;2024-02-23T00:43:40;0.30;;;0.10;;
60030;SDS011;45901;47.600;9.890;2024-02-23T00:46:07;0.07;;;0.00;;
60030;SDS011;45901;47.600;9.890;2024-02-23T00:48:35;0.00;;;0.00;;
60030;SDS011;45901;47.600;9.890;2024-02-23T00:51:02;0.20;;;0.10;;
60030;SDS011;45901;47.600;9.890;2024-02-23T00:53:31;0.00;;;0.00;;
60030;SDS011;45901;47.600;9.890;2024-02-23T00:55:58;0.00;;;0.00;;
60030;SDS011;45901;47.600;9.890;2024-02-23T00:58:25;0.67;;;0.10;;
60030;SDS011;45901;47.600;9.890;2024-02-23T01:00:52;0.40;;;0.10;;
60030;SDS011;45901;47.600;9.890;2024-02-23T01:03:19;0.00;;;0.00;;
60030;SDS011;45901;47.600;9.890;2024-02-23T01:05:46;0.10;;;0.10;;
60030;SDS011;45901;47.600;9.890;2024-02-23T01:08:13;0.10;;;0.10;;
60030;SDS011;45901;47.600;9.890;2024-02-23T01:10:41;0.00;;;0.00;;
60030;SDS011;45901;47.600;9.890;2024-02-23T01:13:08;0.00;;;0.00;;
60030;SDS011;45901;47.600;9.890;2024-02-23T01:15:35;0.03;;;0.00;;
60030;SDS011;45901;47.600;9.890;2024-02-23T01:18:02;0.00;;;0.00;;
60030;SDS011;45901;47.600;9.890;2024-02-23T01:20:31;2.80;;;0.10;;
60030;SDS011;45901;47.600;9.890;2024-02-23T01:22:57;0.10;;;0.00;;
60030;SDS011;45901;47.600;9.890;2024-02-23T01:25:24;0.10;;;0.10;;
60030;SDS011;45901;47.600;9.890;2024-02-23T01:27:53;0.30;;;0.10;;
60030;SDS011;45901;47.600;9.890;2024-02-23T01:30:20;0.77;;;0.10;;
60030;SDS011;45901;47.600;9.890;2024-02-23T01:32:46;0.93;;;0.10;;
60030;SDS011;45901;47.600;9.890;2024-02-23T01:35:15;0.53;;;0.10;;
60030;SDS011;45901;47.600;9.890;2024-02-23T01:37:42;1.30;;;0.10;;
60030;SDS011;45901;47.600;9.890;2024-02-23T01:40:10;0.20;;;0.10;;
60030;SDS011;45901;47.600;9.890;2024-02-23T01:42:37;0.03;;;0.03;;
60030;SDS011;45901;47.600;9.890;2024-02-23T01:45:06;0.23;;;0.10;;
60030;SDS011;45901;47.600;9.890;2024-02-23T01:47:34;0.10;;;0.03;;
60030;SDS011;45901;47.600;9.890;2024-02-23T01:50:01;0.20;;;0.20;;
60030;SDS011;45901;47.600;9.890;2024-02-23T01:52:29;0.00;;;0.00;;
60030;SDS011;45901;47.600;9.890;2024-02-23T01:54:56;0.13;;;0.10;;
60030;SDS011;45901;47.600;9.890;2024-02-23T01:57:25;0.17;;;0.07;;
60030;SDS011;45901;47.600;9.890;2024-02-23T01:59:52;0.67;;;0.10;;
60030;SDS011;45901;47.600;9.890;2024-02-23T02:02:21;0.10;;;0.10;;
60030;SDS011;45901;47.600;9.890;2024-02-23T02:04:48;2.00;;;0.20;;
60030;SDS011;45901;47.600;9.890;2024-02-23T02:07:15;0.07;;;0.00;;
60030;SDS011;45901;47.600;9.890;2024-02-23T02:09:43;0.00;;;0.00;;
60030;SDS011;45901;47.600;9.890;2024-02-23T02:12:11;0.77;;;0.10;;
60030;SDS011;45901;47.600;9.890;2024-02-23T02:14:38;0.87;;;0.20;;
60030;SDS011;45901;47.600;9.890;2024-02-23T02:17:05;1.40;;;0.10;;
60030;SDS011;45901;47.600;9.890;2024-02-23T02:19:33;0.40;;;0.10;;
60030;SDS011;45901;47.600;9.890;2024-02-23T02:22:00;0.23;;;0.10;;
60030;SDS011;45901;47.600;9.890;2024-02-23T02:24:27;1.33;;;0.13;;
60030;SDS011;45901;47.600;9.890;2024-02-23T02:26:54;0.83;;;0.10;;
60030;SDS011;45901;47.600;9.890;2024-02-23T02:29:21;0.10;;;0.10;;
60030;SDS011;45901;47.600;9.890;2024-02-23T02:31:48;0.50;;;0.17;;
60030;SDS011;45901;47.600;9.890;2024-02-23T02:34:15;1.43;;;0.30;;
60030;SDS011;45901;47.600;9.890;2024-02-23T02:36:43;3.80;;;0.77;;
60030;SDS011;45901;47.600;9.890;2024-02-23T02:39:10;2.80;;;0.30;;
60030;SDS011;45901;47.600;9.890;2024-02-23T02:41:37;1.47;;;0.40;;
60030;SDS011;45901;47.600;9.890;2024-02-23T02:44:04;0.50;;;0.20;;
60030;SDS011;45901;47.600;9.890;2024-02-23T02:46:31;0.87;;;0.20;;
60030;SDS011;45901;47.600;9.890;2024-02-23T02:48:58;0.03;;;0.03;;
60030;SDS011;45901;47.600;9.890;2024-02-23T02:51:25;0.60;;;0.10;;
60030;SDS011;45901;47.600;9.890;2024-02-23T02:53:53;0.30;;;0.10;;
60030;SDS011;45901;47.600;9.890;2024-02-23T02:56:21;0.50;;;0.10;;
60030;SDS011;45901;47.600;9.890;2024-02-23T02:58:48;0.57;;;0.20;;
60030;SDS011;45901;47.600;9.890;2024-02-23T03:01:15;1.43;;;0.60;;
60030;SDS011;45901;47.600;9.890;2024-02-23T03:03:42;0.70;;;0.10;;
60030;SDS011;45901;47.600;9.890;2024-02-23T03:06:09;0.53;;;0.10;;
60030;SDS011;45901;47.600;9.890;2024-02-23T03:08:36;0.10;;;0.10;;
60030;SDS011;45901;47.600;9.890;2024-02-23T03:11:04;0.10;;;0.10;;
60030;SDS011;45901;47.600;9.890;2024-02-23T03:13:31;2.70;;;0.40;;
60030;SDS011;45901;47.600;9.890;2024-02-23T03:15:58;0.20;;;0.10;;
60030;SDS011;45901;47.600;9.890;2024-02-23T03:18:25;1.03;;;0.13;;
60030;SDS011;45901;47.600;9.890;2024-02-23T03:20:53;1.40;;;0.20;;
60030;SDS011;45901;47.600;9.890;2024-02-23T03:23:20;1.53;;;0.57;;
60030;SDS011;45901;47.600;9.890;2024-02-23T03:25:47;0.30;;;0.20;;
60030;SDS011;45901;47.600;9.890;2024-02-23T03:28:15;0.43;;;0.20;;
60030;SDS011;45901;47.600;9.890;2024-02-23T03:30:42;3.77;;;0.20;;
60030;SDS011;45901;47.600;9.890;2024-02-23T03:33:09;2.20;;;0.50;;
60030;SDS011;45901;47.600;9.890;2024-02-23T03:35:36;1.47;;;0.57;;
60030;SDS011;45901;47.600;9.890;2024-02-23T03:38:03;3.93;;;0.50;;
60030;SDS011;45901;47.600;9.890;2024-02-23T03:40:30;4.43;;;1.10;;
60030;SDS011;45901;47.600;9.890;2024-02-23T03:42:57;1.23;;;0.27;;
60030;SDS011;45901;47.600;9.890;2024-02-23T03:45:25;1.27;;;0.20;;
60030;SDS011;45901;47.600;9.890;2024-02-23T03:47:52;0.20;;;0.13;;
60030;SDS011;45901;47.600;9.890;2024-02-23T03:50:19;1.00;;;0.30;;
60030;SDS011;45901;47.600;9.890;2024-02-23T03:52:46;3.80;;;0.30;;
60030;SDS011;45901;47.600;9.890;2024-02-23T03:55:13;1.27;;;0.10;;
60030;SDS011;45901;47.600;9.890;2024-02-23T03:57:40;1.13;;;0.30;;
60030;SDS011;45901;47.600;9.890;2024-02-23T04:00:08;0.80;;;0.20;;
60030;SDS011;45901;47.600;9.890;2024-02-23T04:02:37;1.07;;;0.20;;
60030;SDS011;45901;47.600;9.890;2024-02-23T04:05:05;0.60;;;0.20;;
60030;SDS011;45901;47.600;9.890;2024-02-23T04:07:33;0.50;;;0.50;;
60030;SDS011;45901;47.600;9.890;2024-02-23T04:10:00;2.03;;;0.43;;
60030;SDS011;45901;47.600;9.890;2024-02-23T04:12:29;2.87;;;0.50;;
60030;SDS011;45901;47.600;9.890;2024-02-23T04:14:57;3.07;;;0.33;;
60030;SDS011;45901;47.600;9.890;2024-02-23T04:17:24;2.30;;;1.33;;
60030;SDS011;45901;47.600;9.890;2024-02-23T04:19:52;2.17;;;0.30;;
60030;SDS011;45901;47.600;9.890;2024-02-23T04:22:19;3.87;;;0.93;;
60030;SDS011;45901;47.600;9.890;2024-02-23T04:24:46;1.53;;;0.50;;
60030;SDS011;45901;47.600;9.890;2024-02-23T04:27:13;2.67;;;0.70;;
60030;SDS011;45901;47.600;9.890;2024-02-23T04:29:40;0.97;;;0.10;;
60030;SDS011;45901;47.600;9.890;2024-02-23T04:32:07;1.97;;;0.30;;
60030;SDS011;45901;47.600;9.890;2024-02-23T04:34:34;0.43;;;0.20;;
60030;SDS011;45901;47.600;9.890;2024-02-23T04:37:02;2.50;;;0.30;;
60030;SDS011;45901;47.600;9.890;2024-02-23T04:39:30;0.40;;;0.17;;
60030;SDS011;45901;47.600;9.890;2024-02-23T04:41:57;1.53;;;0.40;;
60030;SDS011;45901;47.600;9.890;2024-02-23T04:44:24;3.60;;;1.10;;
60030;SDS011;45901;47.600;9.890;2024-02-23T04:46:51;1.77;;;1.00;;
60030;SDS011;45901;47.600;9.890;2024-02-23T04:49:18;2.63;;;0.30;;
60030;SDS011;45901;47.600;9.890;2024-02-23T04:51:45;2.77;;;0.33;;
60030;SDS011;45901;47.600;9.890;2024-02-23T04:54:14;2.00;;;0.40;;
60030;SDS011;45901;47.600;9.890;2024-02-23T04:56:41;0.57;;;0.37;;
60030;SDS011;45901;47.600;9.890;2024-02-23T04:59:08;0.80;;;0.50;;
60030;SDS011;45901;47.600;9.890;2024-02-23T05:01:35;2.40;;;1.17;;
60030;SDS011;45901;47.600;9.890;2024-02-23T05:04:03;1.77;;;1.07;;
60030;SDS011;45901;47.600;9.890;2024-02-23T05:06:30;4.03;;;1.50;;
60030;SDS011;45901;47.600;9.890;2024-02-23T05:08:57;1.40;;;0.47;;
60030;SDS011;45901;47.600;9.890;2024-02-23T05:11:26;0.80;;;0.43;;
60030;SDS011;45901;47.600;9.890;2024-02-23T05:13:53;0.20;;;0.20;;
60030;SDS011;45901;47.600;9.890;2024-02-23T05:16:20;1.93;;;0.33;;
60030;SDS011;45901;47.600;9.890;2024-02-23T05:18:47;1.73;;;0.80;;
60030;SDS011;45901;47.600;9.890;2024-02-23T05:21:14;2.10;;;1.40;;
60030;SDS011;45901;47.600;9.890;2024-02-23T08:31:06;1.80;;;1.00;;
60030;SDS011;45901;47.600;9.890;2024-02-23T08:54:32;4.07;;;0.60;;
60030;SDS011;45901;47.600;9.890;2024-02-23T08:56:59;1.67;;;0.57;;
60030;SDS011;45901;47.600;9.890;2024-02-23T08:59:26;2.20;;;0.97;;
60030;SDS011;45901;47.600;9.890;2024-02-23T09:01:53;3.30;;;0.90;;
60030;SDS011;45901;47.600;9.890;2024-02-23T09:04:20;3.60;;;0.80;;
60030;SDS011;45901;47.600;9.890;2024-02-23T09:06:48;1.37;;;0.50;;
60030;SDS011;45901;47.600;9.890;2024-02-23T09:09:16;2.40;;;0.70;;
60030;SDS011;45901;47.600;9.890;2024-02-23T09:11:45;1.93;;;0.80;;
60030;SDS011;45901;47.600;9.890;2024-02-23T09:14:12;3.70;;;1.33;;
60030;SDS011;45901;47.600;9.890;2024-02-23T09:16:39;1.83;;;1.00;;
60030;SDS011;45901;47.600;9.890;2024-02-23T09:19:06;3.23;;;1.10;;
60030;SDS011;45901;47.600;9.890;2024-02-23T09:21:33;5.07;;;1.90;;
60030;SDS011;45901;47.600;9.890;2024-02-23T09:24:01;2.60;;;1.17;;
60030;SDS011;45901;47.600;9.890;2024-02-23T09:26:29;2.43;;;1.00;;
60030;SDS011;45901;47.600;9.890;2024-02-23T09:28:57;2.57;;;1.30;;
60030;SDS011;45901;47.600;9.890;2024-02-23T09:31:24;3.00;;;1.00;;
60030;SDS011;45901;47.600;9.890;2024-02-23T09:33:53;1.63;;;0.53;;
60030;SDS011;45901;47.600;9.890;2024-02-23T09:36:20;2.37;;;0.70;;
60030;SDS011;45901;47.600;9.890;2024-02-23T09:38:47;2.33;;;0.80;;
60030;SDS011;45901;47.600;9.890;2024-02-23T09:41:18;2.17;;;0.30;;
60030;SDS011;45901;47.600;9.890;2024-02-23T09:43:47;2.60;;;0.70;;
60030;SDS011;45901;47.600;9.890;2024-02-23T09:46:17;2.50;;;1.47;;
60030;SDS011;45901;47.600;9.890;2024-02-23T09:48:45;0.63;;;0.43;;
60030;SDS011;45901;47.600;9.890;2024-02-23T09:51:15;1.87;;;0.50;;
60030;SDS011;45901;47.600;9.890;2024-02-23T09:53:43;3.57;;;0.77;;
60030;SDS011;45901;47.600;9.890;2024-02-23T09:56:10;2.70;;;0.80;;
60030;SDS011;45901;47.600;9.890;2024-02-23T09:58:42;1.37;;;0.80;;
60030;SDS011;45901;47.600;9.890;2024-02-23T10:01:11;5.90;;;1.60;;
60030;SDS011;45901;47.600;9.890;2024-02-23T10:03:40;1.83;;;1.10;;
60030;SDS011;45901;47.600;9.890;2024-02-23T10:06:07;2.33;;;0.63;;
60030;SDS011;45901;47.600;9.890;2024-02-23T10:08:35;2.83;;;1.00;;
60030;SDS011;45901;47.600;9.890;2024-02-23T10:11:02;3.07;;;1.13;;
60030;SDS011;45901;47.600;9.890;2024-02-23T10:13:30;2.47;;;1.10;;
60030;SDS011;45901;47.600;9.890;2024-02-23T10:15:57;0.77;;;0.47;;
60030;SDS011;45901;47.600;9.890;2024-02-23T10:18:24;1.67;;;0.60;;
60030;SDS011;45901;47.600;9.890;2024-02-23T10:20:53;3.67;;;0.60;;
60030;SDS011;45901;47.600;9.890;2024-02-23T10:23:21;1.93;;;0.60;;
60030;SDS011;45901;47.600;9.890;2024-02-23T10:25:48;2.00;;;0.70;;
60030;SDS011;45901;47.600;9.890;2024-02-23T10:28:15;4.00;;;0.97;;
60030;SDS011;45901;47.600;9.890;2024-02-23T10:30:47;2.17;;;0.60;;
60030;SDS011;45901;47.600;9.890;2024-02-23T10:33:15;5.17;;;1.97;;
60030;SDS011;45901;47.600;9.890;2024-02-23T10:35:48;5.40;;;1.50;;
60030;SDS011;45901;47.600;9.890;2024-02-23T10:38:22;6.13;;;2.07;;
60030;SDS011;45901;47.600;9.890;2024-02-23T10:40:52;3.77;;;1.23;;
60030;SDS011;45901;47.600;9.890;2024-02-23T10:43:24;3.80;;;1.20;;
60030;SDS011;45901;47.600;9.890;2024-02-23T10:45:57;1.80;;;0.87;;
60030;SDS011;45901;47.600;9.890;2024-02-23T10:48:25;3.47;;;1.13;;
60030;SDS011;45901;47.600;9.890;2024-02-23T10:50:56;3.10;;;0.70;;
60030;SDS011;45901;47.600;9.890;2024-02-23T10:53:24;4.30;;;1.90;;
60030;SDS011;45901;47.600;9.890;2024-02-23T10:55:51;3.43;;;1.20;;
60030;SDS011;45901;47.600;9.890;2024-02-23T10:58:23;3.43;;;0.77;;
60030;SDS011;45901;47.600;9.890;2024-02-23T11:00:50;1.90;;;0.63;;
60030;SDS011;45901;47.600;9.890;2024-02-23T11:03:18;2.57;;;0.53;;
60030;SDS011;45901;47.600;9.890;2024-02-23T11:05:47;1.03;;;0.60;;
60030;SDS011;45901;47.600;9.890;2024-02-23T11:08:18;1.00;;;0.70;;
60030;SDS011;45901;47.600;9.890;2024-02-23T11:10:48;2.40;;;0.80;;
60030;SDS011;45901;47.600;9.890;2024-02-23T11:13:17;8.20;;;1.93;;
60030;SDS011;45901;47.600;9.890;2024-02-23T11:15:44;4.80;;;1.43;;
60030;SDS011;45901;47.600;9.890;2024-02-23T11:18:21;3.03;;;0.93;;
60030;SDS011;45901;47.600;9.890;2024-02-23T11:20:53;2.97;;;1.17;;
60030;SDS011;45901;47.600;9.890;2024-02-23T11:23:23;3.60;;;1.20;;
60030;SDS011;45901;47.600;9.890;2024-02-23T11:26:04;2.67;;;0.90;;
60030;SDS011;45901;47.600;9.890;2024-02-23T11:28:33;5.03;;;1.70;;
60030;SDS011;45901;47.600;9.890;2024-02-23T11:31:13;4.47;;;1.53;;
60030;SDS011;45901;47.600;9.890;2024-02-23T11:33:47;7.17;;;1.40;;
60030;SDS011;45901;47.600;9.890;2024-02-23T11:36:27;3.37;;;1.50;;
60030;SDS011;45901;47.600;9.890;2024-02-23T11:38:57;2.53;;;1.57;;
60030;SDS011;45901;47.600;9.890;2024-02-23T11:41:26;4.27;;;1.40;;
60030;SDS011;45901;47.600;9.890;2024-02-23T11:43:55;2.93;;;1.00;;
60030;SDS011;45901;47.600;9.890;2024-02-23T11:46:23;1.70;;;0.80;;
60030;SDS011;45901;47.600;9.890;2024-02-23T11:48:50;2.10;;;0.90;;
60030;SDS011;45901;47.600;9.890;2024-02-23T11:51:19;2.53;;;1.00;;
60030;SDS011;45901;47.600;9.890;2024-02-23T11:53:48;2.47;;;1.13;;
60030;SDS011;45901;47.600;9.890;2024-02-23T11:56:18;4.73;;;0.90;;
60030;SDS011;45901;47.600;9.890;2024-02-23T11:58:46;2.07;;;1.03;;
60030;SDS011;45901;47.600;9.890;2024-02-23T12:01:13;3.00;;;1.30;;
60030;SDS011;45901;47.600;9.890;2024-02-23T12:03:40;4.43;;;1.70;;
60030;SDS011;45901;47.600;9.890;2024-02-23T12:06:10;1.27;;;0.57;;
60030;SDS011;45901;47.600;9.890;2024-02-23T12:08:37;2.77;;;0.93;;
60030;SDS011;45901;47.600;9.890;2024-02-23T12:11:06;4.43;;;1.40;;
60030;SDS011;45901;47.600;9.890;2024-02-23T12:13:36;4.37;;;1.27;;
60030;SDS011;45901;47.600;9.890;2024-02-23T12:16:04;2.53;;;0.90;;
60030;SDS011;45901;47.600;9.890;2024-02-23T12:18:33;3.13;;;0.73;;
60030;SDS011;45901;47.600;9.890;2024-02-23T12:21:01;2.87;;;0.80;;
60030;SDS011;45901;47.600;9.890;2024-02-23T12:23:37;3.80;;;1.13;;
60030;SDS011;45901;47.600;9.890;2024-02-23T12:26:06;1.47;;;0.80;;
60030;SDS011;45901;47.600;9.890;2024-02-23T12:28:35;3.27;;;1.20;;
60030;SDS011;45901;47.600;9.890;2024-02-23T12:31:03;5.90;;;2.27;;
60030;SDS011;45901;47.600;9.890;2024-02-23T12:33:32;3.67;;;1.70;;
60030;SDS011;45901;47.600;9.890;2024-02-23T12:36:01;3.70;;;1.63;;
60030;SDS011;45901;47.600;9.890;2024-02-23T12:38:30;2.37;;;1.10;;
60030;SDS011;45901;47.600;9.890;2024-02-23T12:40:59;6.40;;;1.10;;
60030;SDS011;45901;47.600;9.890;2024-02-23T12:43:27;1.90;;;0.90;;
60030;SDS011;45901;47.600;9.890;2024-02-23T12:45:57;1.67;;;0.60;;
60030;SDS011;45901;47.600;9.890;2024-02-23T12:48:25;3.53;;;0.60;;
60030;SDS011;45901;47.600;9.890;2024-02-23T12:50:52;3.27;;;0.63;;
60030;SDS011;45901;47.600;9.890;2024-02-23T12:56:03;3.57;;;1.20;;
60030;SDS011;45901;47.600;9.890;2024-02-23T12:58:33;5.60;;;1.83;;
60030;SDS011;45901;47.600;9.890;2024-02-23T13:01:02;2.10;;;1.00;;
60030;SDS011;45901;47.600;9.890;2024-02-23T13:03:31;3.70;;;1.30;;
60030;SDS011;45901;47.600;9.890;2024-02-23T13:05:58;2.87;;;1.37;;
60030;SDS011;45901;47.600;9.890;2024-02-23T13:08:28;5.30;;;1.40;;
60030;SDS011;45901;47.600;9.890;2024-02-23T13:10:56;5.63;;;1.87;;
60030;SDS011;45901;47.600;9.890;2024-02-23T13:13:24;5.07;;;2.73;;
60030;SDS011;45901;47.600;9.890;2024-02-23T13:15:52;4.77;;;2.40;;
60030;SDS011;45901;47.600;9.890;2024-02-23T13:18:23;3.53;;;1.10;;
60030;SDS011;45901;47.600;9.890;2024-02-23T13:20:51;3.57;;;1.47;;
60030;SDS011;45901;47.600;9.890;2024-02-23T13:23:18;1.53;;;0.90;;
60030;SDS011;45901;47.600;9.890;2024-02-23T13:25:45;4.57;;;1.10;;
60030;SDS011;45901;47.600;9.890;2024-02-23T13:28:12;2.03;;;1.00;;
60030;SDS011;45901;47.600;9.890;2024-02-23T13:30:39;1.73;;;0.70;;
60030;SDS011;45901;47.600;9.890;2024-02-23T13:33:07;3.43;;;0.97;;
60030;SDS011;45901;47.600;9.890;2024-02-23T13:35:37;2.10;;;1.10;;
60030;SDS011;45901;47.600;9.890;2024-02-23T13:38:04;11.37;;;5.70;;
60030;SDS011;45901;47.600;9.890;2024-02-23T13:40:32;2.27;;;1.00;;
60030;SDS011;45901;47.600;9.890;2024-02-23T13:42:59;1.83;;;0.60;;
60030;SDS011;45901;47.600;9.890;2024-02-23T13:45:26;1.60;;;0.90;;
60030;SDS011;45901;47.600;9.890;2024-02-23T13:47:57;1.00;;;0.50;;
60030;SDS011;45901;47.600;9.890;2024-02-23T13:50:26;4.53;;;1.30;;
60030;SDS011;45901;47.600;9.890;2024-02-23T13:52:55;1.90;;;1.10;;
60030;SDS011;45901;47.600;9.890;2024-02-23T13:55:23;2.90;;;0.90;;
60030;SDS011;45901;47.600;9.890;2024-02-23T13:57:50;2.30;;;0.73;;
60030;SDS011;45901;47.600;9.890;2024-02-23T14:00:18;1.00;;;0.40;;
60030;SDS011;45901;47.600;9.890;2024-02-23T14:02:46;2.17;;;0.70;;
60030;SDS011;45901;47.600;9.890;2024-02-23T14:05:14;4.70;;;0.60;;
60030;SDS011;45901;47.600;9.890;2024-02-23T14:07:43;3.33;;;0.50;;
60030;SDS011;45901;47.600;9.890;2024-02-23T14:10:11;2.30;;;0.70;;
60030;SDS011;45901;47.600;9.890;2024-02-23T14:12:39;1.40;;;0.50;;
60030;SDS011;45901;47.600;9.890;2024-02-23T14:15:08;1.33;;;0.57;;
60030;SDS011;45901;47.600;9.890;2024-02-23T14:17:35;2.07;;;1.00;;
60030;SDS011;45901;47.600;9.890;2024-02-23T14:20:03;2.90;;;0.87;;
60030;SDS011;45901;47.600;9.890;2024-02-23T14:22:31;2.23;;;1.40;;
60030;SDS011;45901;47.600;9.890;2024-02-23T14:24:59;4.57;;;2.00;;
60030;SDS011;45901;47.600;9.890;2024-02-23T14:27:27;3.20;;;1.33;;
60030;SDS011;45901;47.600;9.890;2024-02-23T14:29:54;3.03;;;0.93;;
60030;SDS011;45901;47.600;9.890;2024-02-23T14:32:22;2.93;;;1.40;;
60030;SDS011;45901;47.600;9.890;2024-02-23T14:34:49;2.90;;;1.10;;
60030;SDS011;45901;47.600;9.890;2024-02-23T14:37:16;3.27;;;1.20;;
60030;SDS011;45901;47.600;9.890;2024-02-23T14:39:43;3.40;;;1.63;;
60030;SDS011;45901;47.600;9.890;2024-02-23T14:42:10;2.87;;;1.27;;
60030;SDS011;45901;47.600;9.890;2024-02-23T14:44:39;6.23;;;1.53;;
60030;SDS011;45901;47.600;9.890;2024-02-23T14:47:06;2.93;;;1.20;;
60030;SDS011;45901;47.600;9.890;2024-02-23T14:49:33;9.30;;;1.00;;
60030;SDS011;45901;47.600;9.890;2024-02-23T14:52:01;3.60;;;1.00;;
60030;SDS011;45901;47.600;9.890;2024-02-23T14:54:28;1.57;;;0.90;;
60030;SDS011;45901;47.600;9.890;2024-02-23T14:56:55;1.63;;;1.00;;
60030;SDS011;45901;47.600;9.890;2024-02-23T14:59:22;1.43;;;0.63;;
60030;SDS011;45901;47.600;9.890;2024-02-23T15:01:51;1.70;;;0.70;;
60030;SDS011;45901;47.600;9.890;2024-02-23T15:04:19;2.03;;;0.80;;
60030;SDS011;45901;47.600;9.890;2024-02-23T15:06:46;1.93;;;0.90;;
60030;SDS011;45901;47.600;9.890;2024-02-23T15:09:13;2.33;;;1.60;;
60030;SDS011;45901;47.600;9.890;2024-02-23T15:11:40;1.67;;;0.97;;
60030;SDS011;45901;47.600;9.890;2024-02-23T15:14:08;1.23;;;0.67;;
60030;SDS011;45901;47.600;9.890;2024-02-23T15:16:35;1.00;;;0.57;;
60030;SDS011;45901;47.600;9.890;2024-02-23T15:19:03;2.43;;;0.70;;
60030;SDS011;45901;47.600;9.890;2024-02-23T15:21:30;1.30;;;0.50;;
60030;SDS011;45901;47.600;9.890;2024-02-23T15:23:58;1.07;;;0.77;;
60030;SDS011;45901;47.600;9.890;2024-02-23T15:26:25;1.53;;;0.80;;
60030;SDS011;45901;47.600;9.890;2024-02-23T15:28:52;2.93;;;1.30;;
60030;SDS011;45901;47.600;9.890;2024-02-23T15:31:20;6.70;;;2.37;;
60030;SDS011;45901;47.600;9.890;2024-02-23T15:33:47;4.60;;;1.73;;
60030;SDS011;45901;47.600;9.890;2024-02-23T15:36:16;8.47;;;1.80;;
60030;SDS011;45901;47.600;9.890;2024-02-23T15:38:43;12.80;;;1.87;;
60030;SDS011;45901;47.600;9.890;2024-02-23T15:41:11;8.50;;;1.60;;
60030;SDS011;45901;47.600;9.890;2024-02-23T15:43:38;2.97;;;1.30;;
60030;SDS011;45901;47.600;9.890;2024-02-23T15:46:05;2.30;;;1.20;;
60030;SDS011;45901;47.600;9.890;2024-02-23T15:48:33;1.77;;;0.93;;
60030;SDS011;45901;47.600;9.890;2024-02-23T15:51:01;1.40;;;1.00;;
60030;SDS011;45901;47.600;9.890;2024-02-23T15:53:29;2.37;;;1.23;;
60030;SDS011;45901;47.600;9.890;2024-02-23T15:55:57;4.37;;;1.90;;
60030;SDS011;45901;47.600;9.890;2024-02-23T15:58:24;5.70;;;2.47;;
60030;SDS011;45901;47.600;9.890;2024-02-23T16:00:51;2.37;;;1.10;;
60030;SDS011;45901;47.600;9.890;2024-02-23T16:03:20;1.87;;;0.90;;
60030;SDS011;45901;47.600;9.890;2024-02-23T16:05:48;2.83;;;1.30;;
60030;SDS011;45901;47.600;9.890;2024-02-23T16:08:15;1.43;;;0.50;;
60030;SDS011;45901;47.600;9.890;2024-02-23T16:10:43;2.13;;;1.23;;
60030;SDS011;45901;47.600;9.890;2024-02-23T16:13:11;1.80;;;0.63;;
60030;SDS011;45901;47.600;9.890;2024-02-23T16:15:39;1.63;;;0.70;;
60030;SDS011;45901;47.600;9.890;2024-02-23T16:18:07;1.23;;;0.60;;
60030;SDS011;45901;47.600;9.890;2024-02-23T16:20:34;1.27;;;0.50;;
60030;SDS011;45901;47.600;9.890;2024-02-23T16:23:01;2.13;;;1.00;;
60030;SDS011;45901;47.600;9.890;2024-02-23T16:25:29;2.33;;;0.60;;
60030;SDS011;45901;47.600;9.890;2024-02-23T16:27:57;1.10;;;0.50;;
60030;SDS011;45901;47.600;9.890;2024-02-23T16:30:24;2.27;;;0.77;;
60030;SDS011;45901;47.600;9.890;2024-02-23T16:32:54;2.00;;;0.87;;
60030;SDS011;45901;47.600;9.890;2024-02-23T16:35:21;1.27;;;0.73;;
60030;SDS011;45901;47.600;9.890;2024-02-23T16:37:49;12.23;;;3.50;;
60030;SDS011;45901;47.600;9.890;2024-02-23T16:40:18;4.63;;;1.90;;
60030;SDS011;45901;47.600;9.890;2024-02-23T16:42:48;6.97;;;1.40;;
60030;SDS011;45901;47.600;9.890;2024-02-23T16:45:17;3.97;;;2.13;;
60030;SDS011;45901;47.600;9.890;2024-02-23T16:47:47;3.73;;;1.90;;
60030;SDS011;45901;47.600;9.890;2024-02-23T16:50:14;2.63;;;1.40;;
60030;SDS011;45901;47.600;9.890;2024-02-23T16:52:42;2.63;;;1.57;;
60030;SDS011;45901;47.600;9.890;2024-02-23T16:55:09;1.40;;;0.83;;
60030;SDS011;45901;47.600;9.890;2024-02-23T16:57:36;1.00;;;0.53;;
60030;SDS011;45901;47.600;9.890;2024-02-23T17:00:04;1.87;;;0.97;;
60030;SDS011;45901;47.600;9.890;2024-02-23T17:02:34;3.93;;;1.60;;
60030;SDS011;45901;47.600;9.890;2024-02-23T17:05:02;2.10;;;1.00;;
60030;SDS011;45901;47.600;9.890;2024-02-23T17:07:30;1.73;;;0.77;;
60030;SDS011;45901;47.600;9.890;2024-02-23T17:09:57;4.00;;;1.77;;
60030;SDS011;45901;47.600;9.890;2024-02-23T17:12:24;5.17;;;1.40;;
60030;SDS011;45901;47.600;9.890;2024-02-23T17:14:52;6.70;;;2.77;;
60030;SDS011;45901;47.600;9.890;2024-02-23T17:17:19;7.23;;;3.17;;
60030;SDS011;45901;47.600;9.890;2024-02-23T17:19:48;6.07;;;3.00;;
60030;SDS011;45901;47.600;9.890;2024-02-23T17:22:15;13.90;;;7.57;;
60030;SDS011;45901;47.600;9.890;2024-02-23T17:24:42;7.67;;;3.70;;
60030;SDS011;45901;47.600;9.890;2024-02-23T17:27:09;3.87;;;1.87;;
60030;SDS011;45901;47.600;9.890;2024-02-23T17:29:36;3.90;;;1.67;;
60030;SDS011;45901;47.600;9.890;2024-02-23T17:32:04;2.57;;;1.47;;
60030;SDS011;45901;47.600;9.890;2024-02-23T17:34:32;2.60;;;1.30;;
60030;SDS011;45901;47.600;9.890;2024-02-23T17:37:01;6.63;;;2.43;;
60030;SDS011;45901;47.600;9.890;2024-02-23T17:39:31;4.57;;;1.83;;
60030;SDS011;45901;47.600;9.890;2024-02-23T17:41:59;4.50;;;1.43;;
60030;SDS011;45901;47.600;9.890;2024-02-23T17:44:27;5.80;;;2.60;;
60030;SDS011;45901;47.600;9.890;2024-02-23T17:46:55;3.07;;;1.90;;
60030;SDS011;45901;47.600;9.890;2024-02-23T17:49:23;4.80;;;2.23;;
60030;SDS011;45901;47.600;9.890;2024-02-23T17:51:50;3.03;;;1.30;;
60030;SDS011;45901;47.600;9.890;2024-02-23T17:54:19;1.57;;;0.70;;
60030;SDS011;45901;47.600;9.890;2024-02-23T17:56:46;3.60;;;0.90;;
60030;SDS011;45901;47.600;9.890;2024-02-23T17:59:14;8.10;;;2.00;;
60030;SDS011;45901;47.600;9.890;2024-02-23T18:01:42;5.50;;;2.10;;
60030;SDS011;45901;47.600;9.890;2024-02-23T18:04:09;5.50;;;2.30;;
60030;SDS011;45901;47.600;9.890;2024-02-23T18:06:37;3.37;;;1.07;;
60030;SDS011;45901;47.600;9.890;2024-02-23T18:09:04;3.40;;;0.77;;
60030;SDS011;45901;47.600;9.890;2024-02-23T18:11:32;3.10;;;0.73;;
60030;SDS011;45901;47.600;9.890;2024-02-23T18:14:00;3.30;;;1.80;;
60030;SDS011;45901;47.600;9.890;2024-02-23T18:16:27;4.37;;;2.27;;
60030;SDS011;45901;47.600;9.890;2024-02-23T18:18:55;4.40;;;2.60;;
60030;SDS011;45901;47.600;9.890;2024-02-23T18:21:23;3.27;;;2.00;;
60030;SDS011;45901;47.600;9.890;2024-02-23T18:23:50;2.57;;;1.13;;